createdAt,value
2023-02-26T10:39:39.514Z,102339.28
2023-02-26T10:42:13.967Z,102335.63
2023-02-26T10:44:55.308Z,102326.28
2023-02-26T10:47:21.805Z,102343.59
2023-02-26T10:49:55.211Z,102353.47
2023-02-26T10:52:25.382Z,102328.22
2023-02-26T10:55:04.460Z,102367.78
2023-02-26T10:57:35.164Z,102282.75
2023-02-26T11:00:05.230Z,102328.06
2023-02-26T11:02:37.902Z,102376.16
2023-02-26T11:05:08.272Z,102381.84
2023-02-26T11:07:38.083Z,102377.22
2023-02-26T11:10:05.207Z,102385.59
2023-02-26T11:12:32.616Z,102378.81
2023-02-26T11:15:01.041Z,102371.28
2023-02-26T11:17:32.495Z,102333.88
2023-02-26T11:20:02.673Z,102395.31
2023-02-26T11:22:36.463Z,102287.53
2023-02-26T11:25:04.781Z,102404.56
2023-02-26T11:27:36.689Z,102400.16
2023-02-26T11:30:26.129Z,102400.28
2023-02-26T11:32:56.844Z,102404.88
2023-02-26T11:35:26.662Z,102398.81
2023-02-26T11:37:57.857Z,102382.25
2023-02-26T11:40:42.701Z,102396.19
2023-02-26T11:43:18.148Z,102397.34
2023-02-26T11:45:49.006Z,102343.56
2023-02-26T11:48:22.569Z,102399.88
2023-02-26T11:50:52.897Z,102379.91
2023-02-26T11:53:51.037Z,102401.09
2023-02-26T11:56:31.860Z,102408.31
2023-02-26T11:59:05.649Z,102408.47
2023-02-26T12:01:32.212Z,102404.38
2023-02-26T12:04:02.462Z,102391.88
2023-02-26T12:06:29.622Z,102421.41
2023-02-26T12:08:56.600Z,102327.81
2023-02-26T12:11:32.180Z,102403.59
2023-02-26T12:14:10.591Z,102393.47
2023-02-26T12:16:49.831Z,102379.78
2023-02-26T12:19:40.685Z,102396.75
2023-02-26T12:22:41.294Z,102393.59
2023-02-26T12:25:41.424Z,102385.41
2023-02-26T12:28:45.821Z,102391.09
2023-02-26T12:31:22.718Z,102390.22
2023-02-26T12:34:37.121Z,102377.59
2023-02-26T12:37:27.980Z,102370.34
2023-02-26T12:40:30.973Z,102369.41
2023-02-26T12:43:11.168Z,102381.34
2023-02-26T12:46:13.421Z,102383.66
2023-02-26T12:48:51.479Z,102385.28
2023-02-26T12:51:39.340Z,102388.97
2023-02-26T12:54:34.277Z,102385.56
2023-02-26T12:57:08.626Z,102387.94
2023-02-26T12:59:56.234Z,102369.00
2023-02-26T13:02:54.112Z,102386.41
2023-02-26T13:05:27.081Z,102355.94
2023-02-26T13:08:07.434Z,102306.06
2023-02-26T13:10:47.806Z,102347.44
2023-02-26T13:13:20.310Z,102381.00
2023-02-26T13:15:59.004Z,102380.09
2023-02-26T13:18:49.656Z,102384.34
2023-02-26T13:21:29.737Z,102343.13
2023-02-26T13:24:12.146Z,102391.63
2023-02-26T13:26:40.876Z,102395.97
2023-02-26T13:29:19.687Z,102389.19
2023-02-26T13:32:15.276Z,102391.00
2023-02-26T13:34:47.449Z,102400.13
2023-02-26T13:37:24.150Z,102401.63
2023-02-26T13:39:56.668Z,102398.59
2023-02-26T13:42:51.559Z,102339.06
2023-02-26T13:45:45.808Z,102404.06
2023-02-26T13:48:15.630Z,102395.69
2023-02-26T13:50:54.349Z,102402.72
2023-02-26T13:53:23.951Z,102403.25
2023-02-26T13:55:54.012Z,102402.41
2023-02-26T13:58:33.751Z,102394.88
2023-02-26T14:01:18.927Z,102372.66
2023-02-26T14:04:07.072Z,102400.56
2023-02-26T14:06:40.468Z,102398.31
2023-02-26T14:09:22.289Z,102393.47
2023-02-26T14:11:55.039Z,102390.03
2023-02-26T14:14:21.718Z,102396.28
2023-02-26T14:16:56.074Z,102395.41
2023-02-26T14:19:33.391Z,102397.72
2023-02-26T14:22:18.479Z,102401.50
2023-02-26T14:24:58.299Z,102348.19
2023-02-26T14:27:37.517Z,102402.13
2023-02-26T14:30:18.772Z,102399.50
2023-02-26T14:32:57.340Z,102394.47
2023-02-26T14:35:28.157Z,102407.69
2023-02-26T14:38:26.046Z,102403.59
2023-02-26T14:41:03.273Z,102385.22
2023-02-26T14:43:42.358Z,102403.34
2023-02-26T14:46:11.076Z,102418.75
2023-02-26T14:48:39.070Z,102401.38
2023-02-26T14:51:25.198Z,102387.63
2023-02-26T14:54:21.638Z,102404.91
2023-02-26T14:57:11.820Z,102386.66
2023-02-26T15:00:09.700Z,102421.72
2023-02-26T15:02:42.274Z,102421.88
2023-02-26T15:05:22.569Z,102421.44
2023-02-26T15:08:16.247Z,102418.63
2023-02-26T15:11:16.907Z,102424.84
2023-02-26T15:13:49.512Z,102422.53
2023-02-26T15:16:48.528Z,102417.50
2023-02-26T15:19:49.078Z,102412.19
2023-02-26T15:22:53.952Z,102408.81
2023-02-26T15:25:30.072Z,102343.84
2023-02-26T15:27:57.129Z,102406.34
2023-02-26T15:30:24.734Z,102382.53
2023-02-26T15:32:57.070Z,102408.69
2023-02-26T15:35:23.750Z,102384.13
2023-02-26T15:37:53.335Z,102391.00
2023-02-26T15:40:20.689Z,102433.47
2023-02-26T15:42:51.687Z,102431.34
2023-02-26T15:45:37.245Z,102441.59
2023-02-26T15:48:12.916Z,102439.78
2023-02-26T15:50:45.262Z,102379.28
2023-02-26T15:53:18.366Z,102368.91
2023-02-26T15:56:11.898Z,102451.25
2023-02-26T15:59:14.110Z,102468.38
2023-02-26T16:01:41.279Z,102462.41
2023-02-26T16:04:13.203Z,102461.00
2023-02-26T16:06:47.748Z,102471.13
2023-02-26T16:09:25.524Z,102408.38
2023-02-26T16:11:55.264Z,102405.69
2023-02-26T16:14:25.102Z,102466.34
2023-02-26T16:16:54.727Z,102481.81
2023-02-26T16:19:34.041Z,102474.09
2023-02-26T16:22:04.347Z,102424.63
2023-02-26T16:24:32.459Z,102454.41
2023-02-26T16:27:08.874Z,102470.16
2023-02-26T16:29:37.759Z,102474.88
2023-02-26T16:32:09.547Z,102463.00
2023-02-26T16:34:43.336Z,102478.38
2023-02-26T16:37:32.206Z,102487.88
2023-02-26T16:40:15.948Z,102491.97
2023-02-26T16:42:53.274Z,102484.44
2023-02-26T16:45:35.102Z,102500.88
2023-02-26T16:48:06.404Z,102510.47
2023-02-26T16:50:36.167Z,102512.88
2023-02-26T16:53:07.346Z,102520.19
2023-02-26T16:55:37.753Z,102519.41
2023-02-26T16:58:07.828Z,102511.94
2023-02-26T17:00:37.883Z,102514.16
2023-02-26T17:03:04.416Z,102524.06
2023-02-26T17:05:35.502Z,102491.38
2023-02-26T17:08:17.637Z,102528.03
2023-02-26T17:10:48.653Z,102529.06
2023-02-26T17:13:25.571Z,102536.53
2023-02-26T17:15:54.340Z,102542.38
2023-02-26T17:18:21.820Z,102542.06
2023-02-26T17:20:48.658Z,102536.25
2023-02-26T17:23:17.304Z,102552.25
2023-02-26T17:25:47.464Z,102530.66
2023-02-26T17:28:21.141Z,102533.41
2023-02-26T17:30:47.686Z,102559.69
2023-02-26T17:33:14.797Z,102564.31
2023-02-26T17:35:42.892Z,102567.75
2023-02-26T17:38:13.335Z,102558.41
2023-02-26T17:40:41.545Z,102561.56
2023-02-26T17:43:09.972Z,102479.91
2023-02-26T17:45:40.232Z,102562.19
2023-02-26T17:48:07.730Z,102566.03
2023-02-26T17:50:38.361Z,102575.72
2023-02-26T17:53:05.622Z,102570.47
2023-02-26T17:55:33.302Z,102510.66
2023-02-26T17:57:59.951Z,102557.06
2023-02-26T18:00:26.488Z,102578.16
2023-02-26T18:02:53.135Z,102555.13
2023-02-26T18:05:20.589Z,102591.75
2023-02-26T18:07:48.955Z,102591.72
2023-02-26T18:10:23.717Z,102590.03
2023-02-26T18:12:51.050Z,102563.88
2023-02-26T18:15:17.841Z,102590.06
2023-02-26T18:17:44.392Z,102548.09
2023-02-26T18:20:19.114Z,102582.69
2023-02-26T18:22:47.980Z,102588.78
2023-02-26T18:25:15.604Z,102597.56
2023-02-26T18:27:43.467Z,102578.72
2023-02-26T18:30:31.701Z,102602.25
2023-02-26T18:32:58.391Z,102547.28
2023-02-26T18:35:27.426Z,102601.81
2023-02-26T18:37:55.397Z,102538.84
2023-02-26T18:40:24.369Z,102606.34
2023-02-26T18:42:51.559Z,102607.38
2023-02-26T18:45:19.148Z,102609.00
2023-02-26T18:47:47.027Z,102612.47
2023-02-26T18:50:18.465Z,102607.22
2023-02-26T18:52:45.013Z,102603.50
2023-02-26T18:55:13.129Z,102611.22
2023-02-26T18:57:42.448Z,102612.16
2023-02-26T19:00:13.966Z,102606.91
2023-02-26T19:02:42.556Z,102611.38
2023-02-26T19:05:11.175Z,102595.53
2023-02-26T19:07:38.314Z,102608.69
2023-02-26T19:10:09.047Z,102612.38
2023-02-26T19:12:35.588Z,102613.16
2023-02-26T19:15:02.348Z,102611.53
2023-02-26T19:17:29.064Z,102596.81
2023-02-26T19:19:55.521Z,102594.31
2023-02-26T19:22:22.063Z,102617.00
2023-02-26T19:24:48.605Z,102600.41
2023-02-26T19:27:15.901Z,102619.00
2023-02-26T19:29:42.521Z,102609.38
2023-02-26T19:32:09.405Z,102593.66
2023-02-26T19:34:36.426Z,102613.06
2023-02-26T19:37:02.950Z,102617.25
2023-02-26T19:39:31.315Z,102611.78
2023-02-26T19:41:58.321Z,102606.69
2023-02-26T19:44:27.544Z,102613.78
2023-02-26T19:46:55.022Z,102578.19
2023-02-26T19:49:23.140Z,102528.16
2023-02-26T19:51:50.045Z,102609.84
2023-02-26T19:54:17.091Z,102632.72
2023-02-26T19:56:44.780Z,102631.78
2023-02-26T19:59:12.412Z,102617.88
2023-02-26T20:01:41.472Z,102621.25
2023-02-26T20:04:08.796Z,102628.47
2023-02-26T20:06:35.642Z,102634.66
2023-02-26T20:09:03.581Z,102641.91
2023-02-26T20:11:30.099Z,102584.97
2023-02-26T20:13:56.625Z,102627.09
2023-02-26T20:16:23.167Z,102644.63
2023-02-26T20:18:49.679Z,102586.81
2023-02-26T20:21:16.126Z,102622.97
2023-02-26T20:23:42.604Z,102610.88
2023-02-26T20:26:12.625Z,102628.38
2023-02-26T20:28:39.927Z,102650.25
2023-02-26T20:31:07.385Z,102591.47
2023-02-26T20:33:36.123Z,102633.69
2023-02-26T20:36:03.368Z,102652.25
2023-02-26T20:38:30.087Z,102669.13
2023-02-26T20:40:57.299Z,102658.66
2023-02-26T20:43:28.002Z,102615.78
2023-02-26T20:45:56.294Z,102659.81
2023-02-26T20:48:23.943Z,102656.56
2023-02-26T20:50:53.504Z,102672.19
2023-02-26T20:53:23.326Z,102660.00
2023-02-26T20:55:50.087Z,102667.84
2023-02-26T20:58:17.139Z,102660.88
2023-02-26T21:00:43.801Z,102681.13
2023-02-26T21:03:10.427Z,102642.53
2023-02-26T21:05:38.592Z,102680.28
2023-02-26T21:08:05.303Z,102667.22
2023-02-26T21:10:32.805Z,102683.88
2023-02-26T21:12:59.737Z,102592.84
2023-02-26T21:15:26.490Z,102628.00
2023-02-26T21:17:53.203Z,102627.09
2023-02-26T21:20:22.251Z,102683.19
2023-02-26T21:22:49.652Z,102664.72
2023-02-26T21:25:16.726Z,102688.50
2023-02-26T21:27:43.533Z,102693.00
2023-02-26T21:30:12.220Z,102706.31
2023-02-26T21:32:39.484Z,102656.06
2023-02-26T21:35:07.834Z,102699.06
2023-02-26T21:37:34.536Z,102705.34
2023-02-26T21:40:03.857Z,102679.13
2023-02-26T21:42:30.703Z,102706.53
2023-02-26T21:44:57.164Z,102711.84
2023-02-26T21:47:23.777Z,102653.28
2023-02-26T21:49:50.307Z,102682.22
2023-02-26T21:52:16.761Z,102701.47
2023-02-26T21:54:43.382Z,102693.63
2023-02-26T21:57:09.947Z,102672.50
2023-02-26T21:59:36.441Z,102694.53
2023-02-26T22:02:03.052Z,102718.19
2023-02-26T22:04:29.705Z,102725.28
2023-02-26T22:06:56.772Z,102725.34
2023-02-26T22:09:23.308Z,102705.13
2023-02-26T22:11:49.878Z,102727.19
2023-02-26T22:14:17.081Z,102725.47
2023-02-26T22:16:43.752Z,102721.06
2023-02-26T22:19:10.306Z,102656.97
2023-02-26T22:21:36.778Z,102721.06
2023-02-26T22:24:03.808Z,102706.13
2023-02-26T22:26:30.785Z,102721.97
2023-02-26T22:28:59.672Z,102711.25
2023-02-26T22:31:28.564Z,102712.16
2023-02-26T22:33:56.418Z,102651.72
2023-02-26T22:36:23.384Z,102667.66
2023-02-26T22:38:49.928Z,102662.28
2023-02-26T22:41:16.728Z,102731.72
2023-02-26T22:43:43.200Z,102671.03
2023-02-26T22:46:09.750Z,102646.50
2023-02-26T22:48:36.407Z,102697.47
2023-02-26T22:51:02.919Z,102720.34
2023-02-26T22:53:29.426Z,102725.69
2023-02-26T22:55:55.933Z,102663.38
2023-02-26T22:58:22.535Z,102732.84
2023-02-26T23:00:49.388Z,102664.31
2023-02-26T23:03:15.924Z,102727.56
2023-02-26T23:05:42.392Z,102731.03
2023-02-26T23:08:09.011Z,102734.59
2023-02-26T23:10:35.511Z,102664.22
2023-02-26T23:13:03.137Z,102735.44
2023-02-26T23:15:29.697Z,102732.91
2023-02-26T23:17:56.191Z,102727.56
2023-02-26T23:20:22.817Z,102693.38
2023-02-26T23:22:49.335Z,102736.47
2023-02-26T23:25:15.914Z,102725.16
2023-02-26T23:27:42.536Z,102727.03
2023-02-26T23:30:10.135Z,102729.66
2023-02-26T23:32:36.817Z,102749.00
2023-02-26T23:35:04.449Z,102684.03
2023-02-26T23:37:31.242Z,102758.75
2023-02-26T23:39:58.540Z,102763.19
2023-02-26T23:42:25.070Z,102718.50
2023-02-26T23:44:51.568Z,102727.31
2023-02-26T23:47:18.262Z,102758.84
2023-02-26T23:49:44.745Z,102729.66
2023-02-26T23:52:11.368Z,102701.63
2023-02-26T23:54:39.926Z,102741.16
2023-02-26T23:57:07.010Z,102754.41
2023-02-26T23:59:33.575Z,102760.63
